Time;durP1;ratioP1;P1;durP2;ratioP2;P2;SDS_P1;SDS_P2;PMS_P1;PMS_P2;Temp;Humidity;BMP_temperature;BMP_pressure;BME280_temperature;BME280_humidity;BME280_pressure;Samples;Min_cycle;Max_cycle;Signal;HPM_P1;HPM_P2
2023/12/19 00:00:04;;;;;;;108.93;39.22;;;;;;;;;;5111621;27;20667;-79
2023/12/19 00:02:30;;;;;;;95.60;33.92;;;;;;;;;;5111265;27;20042;-79
2023/12/19 00:04:56;;;;;;;93.25;34.58;;;;;;;;;;5111417;27;20116;-79
2023/12/19 00:07:23;;;;;;;102.53;35.58;;;;;;;;;;5111236;27;20129;-79
2023/12/19 00:09:49;;;;;;;118.10;38.42;;;;;;;;;;5129346;27;20523;-77
2023/12/19 00:12:15;;;;;;;122.03;39.88;;;;;;;;;;5128493;27;20042;-79
2023/12/19 00:14:42;;;;;;;108.22;39.53;;;;;;;;;;5111062;27;20574;-80
2023/12/19 00:17:08;;;;;;;116.82;37.38;;;;;;;;;;5110845;27;20047;-80
2023/12/19 00:19:34;;;;;;;123.00;39.70;;;;;;;;;;5128438;27;20158;-79
2023/12/19 00:22:00;;;;;;;122.47;38.08;;;;;;;;;;5110356;27;20133;-81
2023/12/19 00:24:26;;;;;;;100.82;32.17;;;;;;;;;;5111146;27;20387;-80
2023/12/19 00:26:52;;;;;;;121.20;38.10;;;;;;;;;;5110492;27;20081;-80
2023/12/19 00:29:18;;;;;;;113.55;35.30;;;;;;;;;;5127466;27;20046;-80
2023/12/19 00:31:45;;;;;;;102.35;34.70;;;;;;;;;;5111371;27;20045;-80
2023/12/19 00:34:11;;;;;;;99.55;32.47;;;;;;;;;;5118608;27;20099;-80
2023/12/19 00:36:37;;;;;;;88.45;29.65;;;;;;;;;;5107401;27;20096;-80
2023/12/19 00:39:06;;;;;;;87.82;29.92;;;;;;;;;;5107663;27;20521;-80
2023/12/19 00:41:32;;;;;;;102.22;32.47;;;;;;;;;;5091434;27;20043;-81
2023/12/19 00:44:00;;;;;;;85.50;31.65;;;;;;;;;;5107958;27;20147;-81
2023/12/19 00:46:26;;;;;;;86.88;30.23;;;;;;;;;;5090678;27;20149;-80
2023/12/19 00:48:52;;;;;;;77.18;28.58;;;;;;;;;;5089930;27;20043;-79
2023/12/19 00:51:21;;;;;;;72.38;27.63;;;7.40;99.90;;;;;;5090470;27;20054;-80
2023/12/19 00:53:48;;;;;;;78.43;26.67;;;;;;;;;;5107638;27;20395;-80
2023/12/19 00:56:14;;;;;;;83.45;30.30;;;;;;;;;;5090110;27;20092;-80
2023/12/19 00:58:40;;;;;;;89.82;29.55;;;;;;;;;;5106946;27;20043;-81
2023/12/19 01:01:07;;;;;;;80.97;29.00;;;7.70;99.90;;;;;;5089831;27;20047;-80
2023/12/19 01:03:33;;;;;;;89.10;29.63;;;7.40;99.90;;;;;;5089564;27;20480;-82
2023/12/19 01:06:03;;;;;;;97.18;31.92;;;;;;;;;;5089612;27;20051;-81
2023/12/19 01:08:29;;;;;;;106.15;29.02;;;;;;;;;;5106479;27;20837;-80
2023/12/19 01:10:55;;;;;;;93.25;30.48;;;;;;;;;;5107113;27;20042;-80
2023/12/19 01:13:22;;;;;;;93.25;31.25;;;;;;;;;;5089650;27;20091;-81
2023/12/19 01:15:49;;;;;;;97.15;29.35;;;7.40;99.90;;;;;;5106630;27;20043;-80
2023/12/19 01:18:15;;;;;;;103.38;30.83;;;;;;;;;;5089215;27;20050;-82
2023/12/19 01:20:41;;;;;;;89.05;28.92;;;;;;;;;;5089383;27;20078;-80
2023/12/19 01:23:07;;;;;;;85.00;28.20;;;;;;;;;;5106763;27;20154;-81
2023/12/19 01:25:34;;;;;;;99.32;32.42;;;;;;;;;;5093057;27;20047;-80
2023/12/19 01:28:00;;;;;;;94.68;29.05;;;;;;;;;;5112653;27;20084;-81
2023/12/19 01:30:26;;;;;;;88.22;28.52;;;;;;;;;;5094412;27;20081;-81
2023/12/19 01:32:52;;;;;;;87.43;28.88;;;;;;;;;;5092033;27;20122;-80
2023/12/19 01:35:19;;;;;;;75.07;25.33;;;;;;;;;;5092253;27;20095;-80
2023/12/19 01:37:45;;;;;;;89.63;29.38;;;;;;;;;;5109299;27;20069;-81
2023/12/19 01:40:11;;;;;;;75.70;27.77;;;;;;;;;;5091694;27;20043;-79
2023/12/19 01:42:37;;;;;;;70.70;24.08;;;;;;;;;;5091635;27;20042;-80
2023/12/19 01:45:12;;;;;;;86.97;29.25;;;7.40;99.90;;;;;;5107661;27;20515;-80
2023/12/19 01:47:43;;;;;;;75.97;23.58;;;;;;;;;;5090259;27;20202;-80
2023/12/19 01:50:12;;;;;;;68.47;23.92;;;7.50;99.90;;;;;;5108084;27;20047;-79
2023/12/19 01:52:41;;;;;;;62.67;23.00;;;;;;;;;;5107617;27;20046;-81
2023/12/19 01:55:08;;;;;;;71.40;24.00;;;;;;;;;;5090369;27;20067;-81
2023/12/19 01:57:34;;;;;;;63.92;22.50;;;;;;;;;;5093146;27;20149;-79
2023/12/19 02:00:00;;;;;;;63.60;23.05;;;;;;;;;;5092959;27;20049;-80
2023/12/19 02:02:27;;;;;;;74.00;22.52;;;;;;;;;;5091983;27;20075;-81
2023/12/19 02:04:56;;;;;;;55.58;20.88;;;;;;;;;;5107645;27;20515;-81
2023/12/19 02:07:22;;;;;;;65.00;21.83;;;;;;;;;;5125164;27;20761;-81
2023/12/19 02:09:49;;;;;;;72.90;23.40;;;;;;;;;;5089142;27;20043;-80
2023/12/19 02:12:15;;;;;;;74.75;25.27;;;;;;;;;;5106238;27;20042;-79
2023/12/19 02:14:43;;;;;;;63.63;23.70;;;7.40;99.90;;;;;;5106095;27;20084;-79
2023/12/19 02:17:11;;;;;;;65.78;23.80;;;;;;;;;;5088846;27;20032;-79
2023/12/19 02:19:48;;;;;;;59.85;23.83;;;7.20;99.90;;;;;;5088373;27;20043;-79
2023/12/19 02:22:14;;;;;;;70.55;24.15;;;7.40;99.90;;;;;;5105525;27;20039;-79
2023/12/19 02:24:41;;;;;;;66.85;22.60;;;;;;;;;;5088448;27;20054;-80
2023/12/19 02:27:07;;;;;;;69.43;23.27;;;;;;;;;;5105333;27;20508;-81
2023/12/19 02:29:33;;;;;;;64.93;22.52;;;;;;;;;;5087697;27;20131;-80
2023/12/19 02:31:59;;;;;;;59.08;22.42;;;;;;;;;;5105156;27;20043;-80
2023/12/19 02:34:26;;;;;;;59.25;21.48;;;;;;;;;;5088386;27;20058;-81
2023/12/19 02:36:52;;;;;;;57.00;21.23;;;;;;;;;;5105575;27;20043;-80
2023/12/19 02:39:18;;;;;;;51.58;20.65;;;;;;;;;;5104939;28;20099;-80
2023/12/19 02:41:44;;;;;;;57.55;21.58;;;;;;;;;;5088093;27;20043;-82
2023/12/19 02:44:10;;;;;;;58.17;21.20;;;;;;;;;;5105222;27;20047;-81
2023/12/19 02:46:36;;;;;;;61.50;22.23;;;;;;;;;;5105302;27;20187;-82
2023/12/19 02:49:03;;;;;;;62.30;21.75;;;;;;;;;;5105384;27;20035;-82
2023/12/19 02:51:30;;;;;;;59.10;20.77;;;;;;;;;;5088648;28;20452;-82
2023/12/19 02:53:58;;;;;;;74.88;22.85;;;7.20;99.90;;;;;;5105754;28;20039;-82
2023/12/19 02:56:24;;;;;;;63.05;21.85;;;;;;;;;;5105357;27;20044;-81
2023/12/19 02:58:50;;;;;;;62.22;20.75;;;;;;;;;;5088361;28;20054;-82
2023/12/19 03:01:17;;;;;;;59.83;21.05;;;;;;;;;;5088850;28;20385;-83
2023/12/19 03:03:43;;;;;;;60.83;20.27;;;;;;;;;;5105637;28;20050;-82
2023/12/19 03:06:13;;;;;;;57.40;19.08;;;;;;;;;;5105721;27;20108;-81
2023/12/19 03:08:44;;;;;;;52.50;19.42;;;;;;;;;;5105000;28;20103;-82
2023/12/19 03:11:14;;;;;;;58.55;19.42;;;;;;;;;;5087799;28;20078;-82
2023/12/19 03:13:41;;;;;;;57.20;19.70;;;;;;;;;;5087860;27;20046;-81
2023/12/19 03:16:07;;;;;;;48.28;17.52;;;;;;;;;;5104998;28;20043;-81
2023/12/19 03:18:33;;;;;;;57.03;18.85;;;;;;;;;;5105060;28;20047;-81
2023/12/19 03:20:59;;;;;;;56.83;19.33;;;;;;;;;;5105501;28;20047;-82
2023/12/19 03:23:27;;;;;;;45.60;17.67;;;;;;;;;;5105264;28;20782;-82
2023/12/19 03:25:53;;;;;;;53.80;18.67;;;;;;;;;;5105370;28;20452;-81
2023/12/19 03:28:19;;;;;;;52.63;18.02;;;;;;;;;;5105182;27;20602;-81
2023/12/19 03:30:45;;;;;;;44.38;16.95;;;;;;;;;;5088566;28;20047;-82
2023/12/19 03:33:11;;;;;;;50.83;17.25;;;;;;;;;;5104854;28;20126;-81
2023/12/19 03:35:38;;;;;;;48.97;17.88;;;;;;;;;;5088870;28;20433;-81
2023/12/19 03:38:04;;;;;;;53.53;18.52;;;;;;;;;;5088821;28;20095;-80
2023/12/19 03:40:30;;;;;;;54.47;18.80;;;;;;;;;;5105911;28;20759;-81
2023/12/19 03:42:56;;;;;;;61.28;20.50;;;;;;;;;;5088996;28;20570;-80
2023/12/19 03:45:23;;;;;;;71.10;21.25;;;;;;;;;;5088832;27;20050;-81
2023/12/19 03:47:49;;;;;;;50.88;18.13;;;;;;;;;;5088170;27;20043;-81
2023/12/19 03:50:15;;;;;;;60.78;19.52;;;;;;;;;;5088166;27;20031;-81
2023/12/19 03:52:41;;;;;;;57.28;18.77;;;;;;;;;;5105105;28;20047;-81
2023/12/19 03:55:08;;;;;;;54.55;18.35;;;;;;;;;;5104305;27;20826;-81
2023/12/19 03:57:35;;;;;;;62.22;19.00;;;;;;;;;;5089400;27;20120;-82
2023/12/19 04:00:01;;;;;;;53.92;17.77;;;;;;;;;;5091988;27;20125;-81
2023/12/19 04:02:27;;;;;;;54.60;18.27;;;;;;;;;;5092179;27;20228;-82
2023/12/19 04:04:53;;;;;;;61.80;18.90;;;;;;;;;;5091802;27;20813;-81
2023/12/19 04:07:19;;;;;;;60.42;19.05;;;;;;;;;;5108932;27;20039;-81
2023/12/19 04:09:45;;;;;;;52.50;17.55;;;;;;;;;;5108165;27;20039;-82
2023/12/19 04:12:13;;;;;;;59.60;18.88;;;6.70;99.90;;;;;;5090470;27;20035;-82
2023/12/19 04:14:39;;;;;;;57.65;18.42;;;;;;;;;;5108613;27;20872;-83
2023/12/19 04:17:05;;;;;;;54.58;19.00;;;;;;;;;;5091803;27;20127;-81
2023/12/19 04:19:31;;;;;;;61.65;20.52;;;6.30;99.90;;;;;;5091679;27;20039;-81
2023/12/19 04:21:58;;;;;;;82.93;20.92;;;;;;;;;;5107972;27;20124;-80
2023/12/19 04:24:26;;;;;;;70.10;20.38;;;;;;;;;;5119704;27;20046;-81
2023/12/19 04:26:52;;;;;;;58.78;18.75;;;;;;;;;;5129073;27;20043;-81
2023/12/19 04:29:21;;;;;;;62.95;20.00;;;;;;;;;;5128165;27;20043;-80
2023/12/19 04:31:47;;;;;;;53.97;17.63;;;;;;;;;;5128122;27;20039;-80
2023/12/19 04:34:13;;;;;;;61.60;19.85;;;;;;;;;;5128696;27;20045;-80
2023/12/19 04:36:40;;;;;;;61.30;19.73;;;;;;;;;;5111523;27;20046;-81
2023/12/19 04:39:06;;;;;;;58.00;18.70;;;;;;;;;;5128130;27;20043;-81
2023/12/19 04:41:33;;;;;;;60.33;18.38;;;;;;;;;;5110683;27;20784;-81
2023/12/19 04:43:59;;;;;;;59.22;19.75;;;;;;;;;;5127417;27;20187;-81
2023/12/19 04:46:25;;;;;;;52.45;16.77;;;;;;;;;;5127577;27;20042;-81
2023/12/19 04:48:51;;;;;;;58.72;18.67;;;;;;;;;;5110017;27;20839;-82
2023/12/19 04:51:22;;;;;;;45.10;15.23;;;;;;;;;;5127495;27;20727;-82
2023/12/19 04:53:48;;;;;;;42.78;14.23;;;;;;;;;;5127728;27;20046;-82
2023/12/19 04:56:18;;;;;;;61.25;16.67;;;;;;;;;;5110410;27;20039;-83
2023/12/19 04:58:46;;;;;;;44.92;15.15;;;;;;;;;;5110889;27;20050;-83
2023/12/19 05:01:12;;;;;;;43.08;14.82;;;;;;;;;;5128056;27;20050;-81
2023/12/19 05:03:39;;;;;;;48.63;15.82;;;;;;;;;;5110597;27;20046;-82
2023/12/19 05:06:07;;;;;;;48.55;14.30;;;;;;;;;;5110838;27;20045;-82
2023/12/19 05:08:33;;;;;;;42.28;13.23;;;;;;;;;;5110298;27;20134;-82
2023/12/19 05:10:59;;;;;;;40.13;13.02;;;;;;;;;;5127929;27;20449;-83
2023/12/19 05:13:28;;;;;;;42.17;15.02;;;;;;;;;;5110549;27;20052;-82
2023/12/19 05:15:55;;;;;;;38.53;13.27;;;;;;;;;;5127965;27;20043;-84
2023/12/19 05:18:21;;;;;;;55.53;15.93;;;;;;;;;;5110740;27;20045;-82
2023/12/19 05:20:47;;;;;;;34.72;12.43;;;;;;;;;;5110562;27;20749;-82
2023/12/19 05:23:14;;;;;;;46.45;13.98;;;;;;;;;;5110475;27;20406;-84
2023/12/19 05:25:41;;;;;;;43.83;14.02;;;;;;;;;;5127416;27;20083;-83
2023/12/19 05:28:07;;;;;;;40.47;13.38;;;;;;;;;;5126734;27;20039;-81
2023/12/19 05:30:33;;;;;;;44.45;13.60;;;;;;;;;;5109869;27;20129;-82
2023/12/19 05:32:59;;;;;;;46.75;13.45;;;;;;;;;;5110288;27;20153;-83
2023/12/19 05:35:25;;;;;;;46.95;14.05;;;;;;;;;;5127044;27;20035;-82
2023/12/19 05:37:51;;;;;;;31.48;11.93;;;;;;;;;;5126986;27;20049;-83
2023/12/19 05:40:20;;;;;;;44.00;12.70;;;;;;;;;;5127232;27;20045;-82
2023/12/19 05:42:46;;;;;;;29.58;10.20;;;;;;;;;;5110797;27;20126;-83
2023/12/19 05:45:12;;;;;;;43.88;13.40;;;;;;;;;;5112386;27;20066;-83
2023/12/19 05:47:38;;;;;;;46.50;13.18;;;7.20;99.90;;;;;;5114560;27;20063;-85
2023/12/19 05:50:04;;;;;;;36.45;11.90;;;;;;;;;;5115572;27;20869;-82
2023/12/19 05:52:30;;;;;;;37.08;10.98;;;;;;;;;;5114161;27;20046;-84
2023/12/19 05:54:56;;;;;;;40.05;12.52;;;;;;;;;;5110910;27;20039;-83
2023/12/19 05:57:23;;;;;;;42.95;11.40;;;;;;;;;;5110947;27;20042;-85
2023/12/19 05:59:49;;;;;;;40.08;12.07;;;;;;;;;;5127070;27;20046;-82
2023/12/19 06:02:15;;;;;;;42.80;12.60;;;;;;;;;;5126851;27;20498;-83
2023/12/19 06:04:42;;;;;;;35.67;11.50;;;;;;;;;;5127263;27;20042;-84
2023/12/19 06:07:08;;;;;;;37.22;11.15;;;;;;;;;;5110112;27;20053;-82
2023/12/19 06:09:34;;;;;;;43.83;12.32;;;7.10;99.90;;;;;;5109903;27;20042;-84
2023/12/19 06:12:00;;;;;;;40.80;12.13;;;;;;;;;;5127180;27;20035;-84
2023/12/19 06:14:26;;;;;;;42.92;12.00;;;;;;;;;;5109815;27;20521;-83
2023/12/19 06:16:52;;;;;;;41.20;12.32;;;;;;;;;;5126747;27;20551;-83
2023/12/19 06:19:19;;;;;;;48.88;12.75;;;;;;;;;;5125697;27;20810;-81
2023/12/19 06:21:45;;;;;;;34.00;11.38;;;;;;;;;;5125768;27;20149;-82
2023/12/19 06:24:11;;;;;;;34.30;10.10;;;;;;;;;;5108990;27;20079;-82
2023/12/19 06:26:37;;;;;;;28.55;9.07;;;;;;;;;;5109334;27;20734;-82
2023/12/19 06:29:04;;;;;;;33.90;11.23;;;;;;;;;;5108896;27;20038;-82
2023/12/19 06:31:30;;;;;;;36.97;11.15;;;;;;;;;;5109197;27;20696;-82
2023/12/19 06:33:57;;;;;;;42.78;12.23;;;;;;;;;;5126641;27;20194;-82
2023/12/19 06:36:31;;;;;;;37.60;11.40;;;7.10;99.90;;;;;;5125638;27;20046;-82
2023/12/19 06:38:57;;;;;;;44.33;12.05;;;;;;;;;;5125979;27;20047;-82
2023/12/19 06:41:23;;;;;;;44.00;12.13;;;;;;;;;;5108474;27;20209;-82
2023/12/19 06:43:49;;;;;;;39.17;12.05;;;6.70;99.90;;;;;;5090786;27;20047;-82
2023/12/19 06:46:16;;;;;;;42.88;12.20;;;6.90;99.90;;;;;;5087873;27;20042;-83
2023/12/19 06:48:42;;;;;;;48.83;13.63;;;;;;;;;;5104705;27;20046;-83
2023/12/19 06:51:08;;;;;;;45.17;12.25;;;;;;;;;;5087955;28;20054;-83
2023/12/19 06:53:34;;;;;;;36.28;11.55;;;;;;;;;;5088245;28;20035;-83
2023/12/19 06:56:00;;;;;;;45.97;12.88;;;;;;;;;;5088772;28;20451;-80
2023/12/19 06:58:27;;;;;;;38.33;12.02;;;;;;;;;;5088447;28;20920;-83
2023/12/19 07:00:53;;;;;;;52.17;14.00;;;;;;;;;;5087885;28;20054;-83
2023/12/19 07:03:21;;;;;;;47.63;12.95;;;;;;;;;;5092569;27;20058;-82
2023/12/19 07:05:47;;;;;;;45.97;13.80;;;;;;;;;;5121173;27;20049;-83
2023/12/19 07:08:13;;;;;;;49.25;13.95;;;;;;;;;;5124411;27;20039;-83
2023/12/19 07:10:39;;;;;;;49.63;14.23;;;;;;;;;;5123074;27;20070;-82
2023/12/19 07:13:06;;;;;;;48.05;13.98;;;;;;;;;;5095833;27;20038;-82
2023/12/19 07:15:32;;;;;;;44.17;13.07;;;;;;;;;;5096100;27;20035;-82
2023/12/19 07:17:58;;;;;;;45.85;13.13;;;;;;;;;;5097773;27;20180;-82
2023/12/19 07:20:24;;;;;;;38.83;12.48;;;;;;;;;;5114449;27;20070;-82
2023/12/19 07:22:50;;;;;;;31.98;11.63;;;;;;;;;;5101692;27;20194;-82
2023/12/19 07:25:17;;;;;;;39.50;12.85;;;;;;;;;;5107597;27;20090;-82
2023/12/19 07:27:44;;;;;;;43.17;12.13;;;;;;;;;;5125149;27;20043;-81
2023/12/19 07:30:11;;;;;;;40.15;10.75;;;;;;;;;;5108583;27;20034;-82
2023/12/19 07:32:38;;;;;;;42.17;12.57;;;;;;;;;;5110352;27;20038;-82
2023/12/19 07:35:05;;;;;;;38.00;12.43;;;;;;;;;;5129746;27;20069;-81
2023/12/19 07:37:31;;;;;;;40.65;12.30;;;;;;;;;;5104605;27;20035;-83
2023/12/19 07:39:59;;;;;;;39.45;12.00;;;;;;;;;;5112430;27;20043;-84
2023/12/19 07:42:25;;;;;;;40.85;12.43;;;;;;;;;;5106005;27;20043;-82
2023/12/19 07:44:51;;;;;;;39.42;11.80;;;;;;;;;;5100824;27;20043;-82
2023/12/19 07:47:22;;;;;;;41.92;11.93;;;;;;;;;;5102368;27;20035;-81
2023/12/19 07:49:48;;;;;;;43.47;11.68;;;;;;;;;;5125756;27;20035;-83
2023/12/19 07:52:14;;;;;;;45.90;13.27;;;;;;;;;;5128175;27;20038;-82
2023/12/19 07:54:40;;;;;;;38.90;12.65;;;;;;;;;;5135957;27;20043;-83
2023/12/19 07:57:06;;;;;;;55.50;14.57;;;;;;;;;;5132024;27;20143;-81
2023/12/19 07:59:32;;;;;;;45.65;12.68;;;;;;;;;;5131713;27;20037;-82
2023/12/19 08:01:59;;;;;;;47.42;13.40;;;;;;;;;;5101360;27;20085;-82
2023/12/19 08:04:25;;;;;;;43.38;12.73;;;;;;;;;;5096980;27;20042;-81
2023/12/19 08:06:51;;;;;;;44.22;13.25;;;;;;;;;;5102466;27;20154;-81
2023/12/19 08:09:17;;;;;;;45.30;13.90;;;;;;;;;;5117509;27;20035;-81
2023/12/19 08:11:43;;;;;;;45.35;14.00;;;;;;;;;;5117816;27;20030;-83
2023/12/19 08:14:10;;;;;;;43.78;13.77;;;;;;;;;;5106468;27;20039;-82
2023/12/19 08:16:36;;;;;;;39.85;13.40;;;;;;;;;;5128376;27;20491;-83
2023/12/19 08:19:02;;;;;;;52.33;14.70;;;;;;;;;;5111755;27;20057;-83
2023/12/19 08:21:29;;;;;;;44.38;14.07;;;;;;;;;;5128148;27;20513;-83
2023/12/19 08:23:56;;;;;;;45.63;14.80;;;;;;;;;;5111086;27;20394;-82
2023/12/19 08:26:22;;;;;;;56.15;14.35;;;;;;;;;;5127987;27;20042;-82
2023/12/19 08:28:48;;;;;;;49.50;14.18;;;;;;;;;;5111046;27;20050;-82
2023/12/19 08:31:15;;;;;;;49.10;13.85;;;;;;;;;;5127509;27;20034;-83
2023/12/19 08:33:41;;;;;;;41.20;13.43;;;;;;;;;;5128217;27;20035;-83
2023/12/19 08:36:07;;;;;;;53.97;14.27;;;;;;;;;;5127977;27;20087;-83
2023/12/19 08:38:33;;;;;;;49.03;12.50;;;;;;;;;;5109989;27;20041;-83
2023/12/19 08:40:59;;;;;;;39.13;11.63;;;;;;;;;;5121743;27;20046;-83
2023/12/19 08:43:26;;;;;;;37.78;11.57;;;;;;;;;;5126284;27;20043;-83
2023/12/19 08:45:55;;;;;;;45.40;12.75;;;;;;;;;;5127101;27;20130;-82
2023/12/19 08:48:21;;;;;;;46.78;11.27;;;;;;;;;;5102143;27;20039;-83
2023/12/19 08:50:47;;;;;;;40.33;11.98;;;;;;;;;;5097547;27;20031;-82
2023/12/19 08:53:16;;;;;;;37.88;11.13;;;;;;;;;;5113102;27;20043;-84
2023/12/19 08:55:46;;;;;;;32.75;10.95;;;;;;;;;;5097030;27;20046;-82
2023/12/19 08:58:12;;;;;;;39.85;12.00;;;;;;;;;;5102885;27;20045;-83
2023/12/19 09:00:38;;;;;;;31.98;10.60;;;;;;;;;;5102272;27;20449;-83
2023/12/19 09:03:05;;;;;;;44.75;12.40;;;;;;;;;;5118271;27;20045;-83
2023/12/19 09:05:32;;;;;;;37.17;10.98;;;;;;;;;;5098155;27;20038;-84
2023/12/19 09:07:58;;;;;;;32.28;11.50;;;;;;;;;;5120647;27;20046;-84
2023/12/19 09:10:24;;;;;;;35.00;10.93;;;;;;;;;;5119942;27;20118;-83
2023/12/19 09:12:50;;;;;;;33.30;11.27;;;;;;;;;;5101022;27;20042;-84
2023/12/19 09:15:16;;;;;;;35.55;11.45;;;;;;;;;;5099827;27;20035;-83
2023/12/19 09:17:42;;;;;;;36.00;10.95;;;;;;;;;;5098536;27;20193;-83
2023/12/19 09:20:10;;;;;;;31.02;11.20;;;;;;;;;;5100594;27;20035;-82
2023/12/19 09:22:36;;;;;;;36.83;11.35;;;;;;;;;;5099735;27;20679;-82
2023/12/19 09:25:02;;;;;;;32.38;10.93;;;;;;;;;;5098312;27;20117;-82
2023/12/19 09:27:28;;;;;;;33.08;11.48;;;;;;;;;;5097513;27;20039;-83
2023/12/19 09:29:54;;;;;;;33.65;10.27;;;;;;;;;;5105155;27;20069;-81
2023/12/19 09:32:21;;;;;;;25.67;9.05;;;;;;;;;;5126666;27;20455;-83
2023/12/19 09:34:49;;;;;;;28.88;9.60;;;;;;;;;;5105812;27;20049;-82
2023/12/19 09:37:15;;;;;;;32.83;10.13;;;;;;;;;;5118949;27;20406;-85
2023/12/19 09:39:41;;;;;;;30.67;10.20;;;;;;;;;;5096990;27;20045;-83
2023/12/19 09:42:09;;;;;;;34.55;10.52;;;;;;;;;;5118757;27;20622;-82
2023/12/19 09:44:35;;;;;;;27.33;9.55;;;;;;;;;;5103179;27;20039;-84
2023/12/19 09:47:01;;;;;;;31.58;9.20;;;;;;;;;;5119598;27;20042;-81
2023/12/19 09:49:31;;;;;;;30.23;9.65;;;;;;;;;;5119372;27;20042;-82
2023/12/19 09:51:59;;;;;;;26.92;9.18;;;;;;;;;;5135164;27;20038;-82
2023/12/19 09:54:27;;;;;;;25.88;8.45;;;;;;;;;;5114739;27;20062;-85
2023/12/19 09:56:53;;;;;;;29.35;10.05;;;;;;;;;;5103413;27;20027;-84
2023/12/19 09:59:20;;;;;;;34.28;10.68;;;;;;;;;;5116829;27;20495;-83
2023/12/19 10:01:47;;;;;;;32.53;9.70;;;;;;;;;;5101578;27;20050;-83
2023/12/19 10:04:13;;;;;;;28.27;9.05;;;;;;;;;;5099136;27;20038;-84
2023/12/19 10:07:00;;;;;;;26.23;9.45;;;;;;;;;;5101821;27;20043;-84
2023/12/19 10:09:26;;;;;;;28.30;9.15;;;;;;;;;;5117582;27;20769;-83
2023/12/19 10:12:03;;;;;;;32.85;10.00;;;;;;;;;;5118712;27;20566;-84
2023/12/19 10:14:30;;;;;;;29.10;8.85;;;;;;;;;;5125702;27;20716;-82
2023/12/19 10:16:56;;;;;;;29.17;9.90;;;;;;;;;;5104520;27;20120;-83
2023/12/19 10:19:26;;;;;;;29.13;10.13;;;8.50;99.90;;;;;;5113001;27;20042;-84
2023/12/19 10:22:13;;;;;;;26.35;9.73;;;;;;;;;;5122973;27;20034;-87
2023/12/19 10:24:39;;;;;;;24.73;8.90;;;;;;;;;;5105217;27;20043;-82
2023/12/19 10:27:06;;;;;;;29.40;10.23;;;;;;;;;;5100277;27;20111;-83
2023/12/19 10:29:38;;;;;;;22.35;8.85;;;;;;;;;;5098965;27;20046;-86
2023/12/19 10:32:19;;;;;;;27.92;9.40;;;;;;;;;;5102946;27;20712;-85
2023/12/19 10:34:46;;;;;;;31.08;10.63;;;;;;;;;;5117292;27;20046;-84
2023/12/19 10:37:17;;;;;;;29.52;10.07;;;;;;;;;;5105451;27;20035;-83
2023/12/19 10:39:44;;;;;;;32.58;10.02;;;;;;;;;;5125398;27;20054;-84
2023/12/19 10:42:11;;;;;;;23.27;9.27;;;;;;;;;;5117060;27;20666;-83
2023/12/19 10:44:41;;;;;;;28.55;9.90;;;;;;;;;;5114571;27;20043;-82
2023/12/19 10:47:08;;;;;;;32.30;10.65;;;;;;;;;;5115622;27;20122;-84
2023/12/19 10:49:34;;;;;;;29.10;9.85;;;;;;;;;;5097759;27;20403;-83
2023/12/19 10:52:04;;;;;;;24.42;9.02;;;;;;;;;;5113997;27;20047;-83
2023/12/19 10:54:30;;;;;;;30.80;9.82;;;;;;;;;;5120758;27;21258;-83
2023/12/19 10:57:10;;;;;;;30.17;9.85;;;;;;;;;;5097826;27;20034;-83
2023/12/19 10:59:36;;;;;;;27.35;10.55;;;;;;;;;;5102577;27;20027;-84
2023/12/19 11:02:21;;;;;;;29.17;10.48;;;;;;;;;;5117124;27;20649;-84
2023/12/19 11:04:52;;;;;;;33.45;10.70;;;;;;;;;;5096914;27;20462;-84
2023/12/19 11:07:19;;;;;;;28.52;10.70;;;;;;;;;;5119903;27;20039;-82
2023/12/19 11:09:49;;;;;;;31.23;11.15;;;8.50;99.90;;;;;;5119878;27;20034;-84
2023/12/19 11:12:15;;;;;;;34.40;11.75;;;;;;;;;;5119086;27;20079;-82
2023/12/19 11:14:41;;;;;;;34.03;11.30;;;;;;;;;;5100650;27;20058;-83
2023/12/19 11:17:17;;;;;;;33.38;12.02;;;8.40;99.90;;;;;;5103146;27;20042;-84
2023/12/19 11:19:57;;;;;;;42.90;13.63;;;;;;;;;;5119833;27;20082;-85
2023/12/19 11:22:31;;;;;;;40.05;13.23;;;;;;;;;;5117449;27;20035;-84
2023/12/19 11:25:03;;;;;;;36.97;13.73;;;;;;;;;;5100946;27;20047;-82
2023/12/19 11:27:34;;;;;;;48.90;13.95;;;;;;;;;;5103045;27;20111;-82
2023/12/19 11:30:00;;;;;;;42.33;14.52;;;;;;;;;;5102282;27;20176;-84
2023/12/19 11:32:29;;;;;;;41.47;14.63;;;;;;;;;;5119060;27;20035;-83
2023/12/19 11:35:12;;;;;;;43.50;14.63;;;;;;;;;;5118203;27;20050;-84
2023/12/19 11:37:39;;;;;;;42.20;13.73;;;;;;;;;;5118113;27;20042;-84
2023/12/19 11:40:09;;;;;;;46.95;15.50;;;;;;;;;;5111811;27;20043;-84
2023/12/19 11:42:38;;;;;;;55.53;17.52;;;;;;;;;;5091416;27;20043;-85
2023/12/19 11:45:27;;;;;;;45.97;16.00;;;;;;;;;;5091287;27;20104;-84
2023/12/19 11:47:55;;;;;;;56.70;18.17;;;;;;;;;;5096823;27;20058;-84
2023/12/19 11:50:40;;;;;;;45.65;15.70;;;;;;;;;;5111887;27;20548;-82
2023/12/19 11:53:06;;;;;;;56.70;18.30;;;;;;;;;;5118863;27;20222;-83
2023/12/19 11:55:33;;;;;;;41.97;15.35;;;;;;;;;;5131519;27;20062;-84
2023/12/19 11:58:08;;;;;;;50.92;16.90;;;;;;;;;;5119739;27;20050;-83
2023/12/19 12:00:35;;;;;;;56.67;17.55;;;;;;;;;;5130955;27;20046;-83
2023/12/19 12:03:10;;;;;;;53.65;17.70;;;;;;;;;;5129365;27;20137;-86
2023/12/19 12:05:37;;;;;;;55.10;17.52;;;;;;;;;;5112144;27;20074;-84
2023/12/19 12:08:04;;;;;;;45.85;16.10;;;;;;;;;;5112062;27;20054;-84
2023/12/19 12:10:30;;;;;;;58.83;18.40;;;;;;;;;;5112036;27;20534;-85
2023/12/19 12:12:59;;;;;;;50.85;16.98;;;;;;;;;;5112246;27;20486;-85
2023/12/19 12:15:26;;;;;;;51.83;17.77;;;;;;;;;;5129518;27;20077;-84
2023/12/19 12:18:05;;;;;;;53.50;17.08;;;;;;;;;;5128507;27;20102;-84
2023/12/19 12:20:34;;;;;;;56.35;17.02;;;;;;;;;;5107810;27;21189;-83
2023/12/19 12:23:01;;;;;;;54.17;16.40;;;;;;;;;;5101905;27;20476;-85
2023/12/19 12:25:27;;;;;;;49.10;16.35;;;;;;;;;;5115491;27;20031;-84
2023/12/19 12:27:55;;;;;;;56.53;17.73;;;;;;;;;;5121535;27;20631;-84
2023/12/19 12:30:27;;;;;;;53.45;17.42;;;;;;;;;;5118533;27;20031;-84
2023/12/19 12:32:53;;;;;;;49.60;16.73;;;;;;;;;;5100561;27;20126;-83
2023/12/19 12:35:38;;;;;;;54.83;17.63;;;;;;;;;;5099511;27;20440;-87
2023/12/19 12:38:17;;;;;;;52.25;16.98;;;;;;;;;;5096183;27;20031;-83
2023/12/19 12:40:59;;;;;;;55.88;17.05;;;;;;;;;;5086014;27;22535;-86
2023/12/19 12:46:28;;;;;;;;;;;;;;;;;;5095029;27;20043;-83
2023/12/19 12:48:54;;;;;;;54.35;16.45;;;;;;;;;;5099580;27;20350;-84
2023/12/19 12:51:21;;;;;;;51.17;16.25;;;;;;;;;;5098494;27;20937;-83
2023/12/19 12:54:00;;;;;;;44.58;14.25;;;;;;;;;;5100994;27;20031;-84
2023/12/19 12:56:31;;;;;;;52.22;15.90;;;;;;;;;;5114605;27;20137;-85
2023/12/19 12:59:08;;;;;;;50.30;15.43;;;;;;;;;;5101212;27;20042;-84
2023/12/19 13:01:37;;;;;;;54.58;16.75;;;;;;;;;;5101321;27;20503;-84
2023/12/19 13:04:03;;;;;;;47.92;16.83;;;;;;;;;;5118147;27;20051;-85
2023/12/19 13:06:30;;;;;;;49.75;16.40;;;;;;;;;;5104746;27;20095;-85
2023/12/19 13:08:56;;;;;;;56.35;16.92;;;;;;;;;;5118888;27;20043;-84
2023/12/19 13:11:22;;;;;;;44.58;14.77;;;;;;;;;;5118191;27;20584;-84
2023/12/19 13:13:49;;;;;;;53.88;15.20;;;;;;;;;;5126433;27;20047;-84
2023/12/19 13:16:16;;;;;;;49.17;15.02;;;;;;;;;;5099078;27;20034;-83
2023/12/19 13:18:47;;;;;;;47.15;14.70;;;;;;;;;;5100262;27;20074;-84
2023/12/19 13:21:14;;;;;;;40.90;12.95;;;;;;;;;;5100774;27;20352;-84
2023/12/19 13:23:41;;;;;;;43.47;14.77;;;;;;;;;;5098480;27;20046;-83
2023/12/19 13:26:07;;;;;;;41.20;13.77;;;8.40;99.90;;;;;;5100530;27;20047;-84
2023/12/19 13:28:33;;;;;;;44.00;14.07;;;;;;;;;;5098278;27;20046;-85
2023/12/19 13:30:59;;;;;;;47.67;14.50;;;;;;;;;;5100200;27;20035;-85
2023/12/19 13:33:25;;;;;;;50.20;14.60;;;;;;;;;;5100514;27;20038;-85
2023/12/19 13:35:51;;;;;;;48.15;14.15;;;;;;;;;;5101077;27;20034;-85
2023/12/19 13:38:18;;;;;;;40.75;13.27;;;;;;;;;;5095637;27;20078;-83
2023/12/19 13:40:44;;;;;;;37.08;12.85;;;;;;;;;;5090250;27;20053;-83
2023/12/19 13:43:11;;;;;;;40.58;13.00;;;;;;;;;;5093048;27;20043;-84
2023/12/19 13:45:37;;;;;;;38.60;11.88;;;;;;;;;;5094107;27;20052;-83
2023/12/19 13:48:04;;;;;;;40.47;13.02;;;;;;;;;;5089864;27;20047;-83
2023/12/19 13:50:30;;;;;;;40.53;12.32;;;;;;;;;;5101977;27;20522;-83
2023/12/19 13:52:57;;;;;;;37.42;11.77;;;;;;;;;;5089939;27;20043;-84
2023/12/19 13:55:23;;;;;;;33.47;11.35;;;;;;;;;;5090757;27;20046;-84
2023/12/19 13:57:49;;;;;;;36.67;11.90;;;;;;;;;;5107536;27;20405;-84
2023/12/19 14:00:15;;;;;;;39.25;12.88;;;;;;;;;;5092315;27;20034;-83
2023/12/19 14:02:42;;;;;;;32.03;11.55;;;;;;;;;;5099496;27;20042;-83
2023/12/19 14:05:09;;;;;;;31.55;10.80;;;;;;;;;;5097245;27;20123;-84
2023/12/19 14:07:35;;;;;;;33.95;10.48;;;;;;;;;;5100266;27;20038;-84
2023/12/19 14:10:02;;;;;;;28.23;9.60;;;;;;;;;;5117143;27;20039;-83
2023/12/19 14:12:31;;;;;;;30.73;10.15;;;;;;;;;;5095906;27;20038;-83
2023/12/19 14:14:58;;;;;;;32.80;10.57;;;;;;;;;;5101409;27;20129;-84